M/V Idc Falcon — TCXI5 — position and weather

sailwx.info

Track history (hours):
 
Tides and Currents Weather Stations Pressure Air Temp Water Temp Dewpoint Dewpoint Depression Visibility Wind Speed Wind Dir Waves Ship Positions

M/V Idc Falcon

Last reported at 2017-Sep-21 17:42 UTC. Time now 2017-Oct-18 22:36 UTC.
Position N 34°09' W 007°56'.
Warning: this ship's position is 27 days out of date.

Length 190 m; draft 10.9 m.

Type: Cargo ship. MMSI: 271040248.

Date/timePositionNaut miles runAvg speedWind from/ knotsBaromVisibWave heightAir tempDewpointWater temp
2017-Sep-21 17:42N 34°09' W 007°56'7713.4
2017-Sep-21 11:59N 35°05' W 006°52'8112.5
2017-Sep-21 05:30N 35°58' W 005°37'511.0
2017-Sep-21 05:00N 35°60' W 005°31'510.9
2017-Sep-21 04:30N 36°02' W 005°25'4 7.9
2017-Sep-21 04:00N 36°06' W 005°25'0 0.4
2017-Sep-21 03:30N 36°06' W 005°25'0 0.0
2017-Sep-21 03:00N 36°06' W 005°25'0 0.1
2017-Sep-21 02:30N 36°06' W 005°25'0 0.1
2017-Sep-21 02:00N 36°06' W 005°25'0 0.0
2017-Sep-21 01:30N 36°06' W 005°25'0 0.0
2017-Sep-21 01:00N 36°06' W 005°25'0 0.0
2017-Sep-21 00:30N 36°06' W 005°25'0 0.0
2017-Sep-21 00:00N 36°06' W 005°25'0 0.0
2017-Sep-20 23:29N 36°06' W 005°25'0 0.1
2017-Sep-20 23:00N 36°06' W 005°25'0 0.1
2017-Sep-20 22:30N 36°06' W 005°25'0 0.3
2017-Sep-20 22:00N 36°06' W 005°25'0 0.1
2017-Sep-20 21:30N 36°06' W 005°25'0 0.0
2017-Sep-20 21:00N 36°06' W 005°25'0 0.1
2017-Sep-20 20:30N 36°06' W 005°25'0 0.0
2017-Sep-20 20:00N 36°06' W 005°25'0 0.0
2017-Sep-20 19:30N 36°06' W 005°25'0 0.1
2017-Sep-20 19:00N 36°06' W 005°25'3 3.2
2017-Sep-20 18:03N 36°04' W 005°21'0 8.2
2017-Sep-20 18:00N 36°04' W 005°21'4 8.3
2017-Sep-20 17:30N 36°03' W 005°16'20812.2
2017-Sep-20 00:30N 37°08' W 001°10'713.5
2017-Sep-20 00:01N 37°13' W 001°04'713.5
2017-Sep-19 23:29N 37°17' W 000°57'613.3
2017-Sep-19 23:00N 37°22' W 000°51'713.5
2017-Sep-19 22:30N 37°26' W 000°45'1313.2
2017-Sep-19 21:33N 37°35' W 000°33'013.1
2017-Sep-19 21:30N 37°35' W 000°33'713.4
2017-Sep-19 21:00N 37°41' W 000°28'713.5
2017-Sep-19 20:30N 37°47' W 000°23'813.5
2017-Sep-19 19:56N 37°53' W 000°17'613.5
2017-Sep-19 19:30N 37°58' W 000°13'161 6.4
2017-Sep-18 18:28N 40°34' E 000°33'0 0.0
2017-Sep-18 17:58N 40°34' E 000°33'0 0.0
2017-Sep-18 17:23N 40°34' E 000°33'0 0.0
2017-Sep-18 15:28N 40°34' E 000°33'0 0.0
2017-Sep-18 14:59N 40°34' E 000°33'0 0.0
2017-Sep-18 06:16N 40°34' E 000°33'  
2017-Sep-14 17:58N 40°34' E 000°33'0 0.0
2017-Sep-14 17:22N 40°34' E 000°33'0 0.0
2017-Sep-14 16:59N 40°34' E 000°33'0 0.0
2017-Sep-14 16:23N 40°34' E 000°33'0 0.0
2017-Sep-14 15:47N 40°34' E 000°33'0 0.0
2017-Sep-14 15:19N 40°34' E 000°33'0 0.0
2017-Sep-14 14:58N 40°34' E 000°33'0 0.0
2017-Sep-14 14:22N 40°34' E 000°33'0 0.0
2017-Sep-14 13:49N 40°34' E 000°33'0 0.0
2017-Sep-14 13:22N 40°34' E 000°33'0 0.0
2017-Sep-14 12:58N 40°34' E 000°33'0 0.0
2017-Sep-14 12:13N 40°34' E 000°33'0 0.0
2017-Sep-14 11:56N 40°34' E 000°33'0 0.0
2017-Sep-14 11:29N 40°34' E 000°33'0 0.0
2017-Sep-14 07:59N 40°34' E 000°33'0 0.0
2017-Sep-14 07:17N 40°34' E 000°33'0 0.0
2017-Sep-14 06:41N 40°34' E 000°33'0 0.0
2017-Sep-14 05:19N 40°34' E 000°33'0 0.0
2017-Sep-14 04:59N 40°34' E 000°33'0 0.0
2017-Sep-14 01:05N 40°34' E 000°33'0 0.0
2017-Sep-14 00:46N 40°34' E 000°33'0 0.0
2017-Sep-14 00:28N 40°34' E 000°33'0 0.0
2017-Sep-13 23:59N 40°34' E 000°33'0 0.0
2017-Sep-13 22:16N 40°34' E 000°33'0 0.0
2017-Sep-13 21:17N 40°34' E 000°33'0 0.0
2017-Sep-13 20:53N 40°34' E 000°33'0 0.0
2017-Sep-13 20:22N 40°34' E 000°33'0 0.0
2017-Sep-13 19:52N 40°34' E 000°33'0 0.0
2017-Sep-13 18:53N 40°34' E 000°33'0 0.0
2017-Sep-13 17:35N 40°34' E 000°33'0 0.0
2017-Sep-13 17:29N 40°34' E 000°33'0 0.0
2017-Sep-13 16:58N 40°34' E 000°33'0 0.0
2017-Sep-13 16:28N 40°34' E 000°33'0 0.0
2017-Sep-13 15:59N 40°34' E 000°33'0 0.0
2017-Sep-13 15:25N 40°34' E 000°33'0 0.0
2017-Sep-13 14:56N 40°34' E 000°33'0 0.0
2017-Sep-13 14:29N 40°34' E 000°33'0 0.0
2017-Sep-13 13:22N 40°34' E 000°33'0 0.0
2017-Sep-13 12:59N 40°34' E 000°33'0 0.0
2017-Sep-13 12:05N 40°34' E 000°33'0 0.0
2017-Sep-13 11:58N 40°34' E 000°33'0 0.0
2017-Sep-13 11:23N 40°34' E 000°33'0 0.0
2017-Sep-12 20:04N 40°34' E 000°33'0 0.0
2017-Sep-12 19:53N 40°34' E 000°33'16 1.8
2017-Sep-12 11:22N 40°24' E 000°48'513.6
2017-Sep-12 10:59N 40°20' E 000°52'713.5
2017-Sep-12 10:30N 40°15' E 000°58'713.3
2017-Sep-12 10:00N 40°10' E 001°04'613.2
2017-Sep-12 09:30N 40°06' E 001°10'613.0
2017-Sep-12 09:00N 40°01' E 001°17'612.9
2017-Sep-12 08:30N 39°57' E 001°23'612.8
2017-Sep-12 08:00N 39°52' E 001°29'612.9
2017-Sep-12 07:30N 39°48' E 001°35'612.7
2017-Sep-12 07:00N 39°44' E 001°42'612.8
2017-Sep-12 06:30N 39°40' E 001°48'713.0
2017-Sep-12 06:00N 39°35' E 001°54'713.3
2017-Sep-12 05:30N 39°31' E 002°00'714.3
2017-Sep-12 05:00N 39°25' E 002°06'714.7
2017-Sep-12 04:30N 39°20' E 002°13'714.5
2017-Sep-12 04:00N 39°15' E 002°20'714.4
2017-Sep-12 03:30N 39°10' E 002°27'714.2
2017-Sep-12 03:00N 39°06' E 002°34'714.0
2017-Sep-12 02:30N 39°02' E 002°41'713.9
2017-Sep-12 02:00N 38°58' E 002°49'612.1
2017-Sep-12 01:30N 38°53' E 002°52'713.3
2017-Sep-12 01:00N 38°48' E 002°58'714.0
2017-Sep-12 00:31N 38°43' E 003°04'713.8
2017-Sep-12 00:00N 38°38' E 003°11'713.9
2017-Sep-11 23:30N 38°33' E 003°17'713.9
2017-Sep-11 23:00N 38°28' E 003°24'714.0
2017-Sep-11 22:31N 38°23' E 003°30'714.2
2017-Sep-11 22:00N 38°19' E 003°36'714.1
2017-Sep-11 21:30N 38°14' E 003°43'  
Track history (hours):
 
Tides and Currents Weather Stations Pressure Air Temp Water Temp Dewpoint Dewpoint Depression Visibility Wind Speed Wind Dir Waves Ship Positions

M/V Idc Falcon

Last reported at 2017-Sep-21 17:42 UTC. Time now 2017-Oct-18 22:36 UTC.
Position N 34°09' W 007°56'.
Warning: this ship's position is 27 days out of date.

Length 190 m; draft 10.9 m.

Type: Cargo ship. MMSI: 271040248.

Date/timePositionNaut miles runAvg speedWind from/ knotsBaromVisibWave heightAir tempDewpointWater temp
2017-Sep-21 17:42N 34°09' W 007°56'7713.4
2017-Sep-21 11:59N 35°05' W 006°52'8112.5
2017-Sep-21 05:30N 35°58' W 005°37'511.0
2017-Sep-21 05:00N 35°60' W 005°31'510.9
2017-Sep-21 04:30N 36°02' W 005°25'4 7.9
2017-Sep-21 04:00N 36°06' W 005°25'0 0.4
2017-Sep-21 03:30N 36°06' W 005°25'0 0.0
2017-Sep-21 03:00N 36°06' W 005°25'0 0.1
2017-Sep-21 02:30N 36°06' W 005°25'0 0.1
2017-Sep-21 02:00N 36°06' W 005°25'0 0.0
2017-Sep-21 01:30N 36°06' W 005°25'0 0.0
2017-Sep-21 01:00N 36°06' W 005°25'0 0.0
2017-Sep-21 00:30N 36°06' W 005°25'0 0.0
2017-Sep-21 00:00N 36°06' W 005°25'0 0.0
2017-Sep-20 23:29N 36°06' W 005°25'0 0.1
2017-Sep-20 23:00N 36°06' W 005°25'0 0.1
2017-Sep-20 22:30N 36°06' W 005°25'0 0.3
2017-Sep-20 22:00N 36°06' W 005°25'0 0.1
2017-Sep-20 21:30N 36°06' W 005°25'0 0.0
2017-Sep-20 21:00N 36°06' W 005°25'0 0.1
2017-Sep-20 20:30N 36°06' W 005°25'0 0.0
2017-Sep-20 20:00N 36°06' W 005°25'0 0.0
2017-Sep-20 19:30N 36°06' W 005°25'0 0.1
2017-Sep-20 19:00N 36°06' W 005°25'3 3.2
2017-Sep-20 18:03N 36°04' W 005°21'0 8.2
2017-Sep-20 18:00N 36°04' W 005°21'4 8.3
2017-Sep-20 17:30N 36°03' W 005°16'20812.2
2017-Sep-20 00:30N 37°08' W 001°10'713.5
2017-Sep-20 00:01N 37°13' W 001°04'713.5
2017-Sep-19 23:29N 37°17' W 000°57'613.3
2017-Sep-19 23:00N 37°22' W 000°51'713.5
2017-Sep-19 22:30N 37°26' W 000°45'1313.2
2017-Sep-19 21:33N 37°35' W 000°33'013.1
2017-Sep-19 21:30N 37°35' W 000°33'713.4
2017-Sep-19 21:00N 37°41' W 000°28'713.5
2017-Sep-19 20:30N 37°47' W 000°23'813.5
2017-Sep-19 19:56N 37°53' W 000°17'613.5
2017-Sep-19 19:30N 37°58' W 000°13'161 6.4
2017-Sep-18 18:28N 40°34' E 000°33'0 0.0
2017-Sep-18 17:58N 40°34' E 000°33'0 0.0
2017-Sep-18 17:23N 40°34' E 000°33'0 0.0
2017-Sep-18 15:28N 40°34' E 000°33'0 0.0
2017-Sep-18 14:59N 40°34' E 000°33'0 0.0
2017-Sep-18 06:16N 40°34' E 000°33'  
2017-Sep-14 17:58N 40°34' E 000°33'0 0.0
2017-Sep-14 17:22N 40°34' E 000°33'0 0.0
2017-Sep-14 16:59N 40°34' E 000°33'0 0.0
2017-Sep-14 16:23N 40°34' E 000°33'0 0.0
2017-Sep-14 15:47N 40°34' E 000°33'0 0.0
2017-Sep-14 15:19N 40°34' E 000°33'0 0.0
2017-Sep-14 14:58N 40°34' E 000°33'0 0.0
2017-Sep-14 14:22N 40°34' E 000°33'0 0.0
2017-Sep-14 13:49N 40°34' E 000°33'0 0.0
2017-Sep-14 13:22N 40°34' E 000°33'0 0.0
2017-Sep-14 12:58N 40°34' E 000°33'0 0.0
2017-Sep-14 12:13N 40°34' E 000°33'0 0.0
2017-Sep-14 11:56N 40°34' E 000°33'0 0.0
2017-Sep-14 11:29N 40°34' E 000°33'0 0.0
2017-Sep-14 07:59N 40°34' E 000°33'0 0.0
2017-Sep-14 07:17N 40°34' E 000°33'0 0.0
2017-Sep-14 06:41N 40°34' E 000°33'0 0.0
2017-Sep-14 05:19N 40°34' E 000°33'0 0.0
2017-Sep-14 04:59N 40°34' E 000°33'0 0.0
2017-Sep-14 01:05N 40°34' E 000°33'0 0.0
2017-Sep-14 00:46N 40°34' E 000°33'0 0.0
2017-Sep-14 00:28N 40°34' E 000°33'0 0.0
2017-Sep-13 23:59N 40°34' E 000°33'0 0.0
2017-Sep-13 22:16N 40°34' E 000°33'0 0.0
2017-Sep-13 21:17N 40°34' E 000°33'0 0.0
2017-Sep-13 20:53N 40°34' E 000°33'0 0.0
2017-Sep-13 20:22N 40°34' E 000°33'0 0.0
2017-Sep-13 19:52N 40°34' E 000°33'0 0.0
2017-Sep-13 18:53N 40°34' E 000°33'0 0.0
2017-Sep-13 17:35N 40°34' E 000°33'0 0.0
2017-Sep-13 17:29N 40°34' E 000°33'0 0.0
2017-Sep-13 16:58N 40°34' E 000°33'0 0.0
2017-Sep-13 16:28N 40°34' E 000°33'0 0.0
2017-Sep-13 15:59N 40°34' E 000°33'0 0.0
2017-Sep-13 15:25N 40°34' E 000°33'0 0.0
2017-Sep-13 14:56N 40°34' E 000°33'0 0.0
2017-Sep-13 14:29N 40°34' E 000°33'0 0.0
2017-Sep-13 13:22N 40°34' E 000°33'0 0.0
2017-Sep-13 12:59N 40°34' E 000°33'0 0.0
2017-Sep-13 12:05N 40°34' E 000°33'0 0.0
2017-Sep-13 11:58N 40°34' E 000°33'0 0.0
2017-Sep-13 11:23N 40°34' E 000°33'0 0.0
2017-Sep-12 20:04N 40°34' E 000°33'0 0.0
2017-Sep-12 19:53N 40°34' E 000°33'16 1.8
2017-Sep-12 11:22N 40°24' E 000°48'513.6
2017-Sep-12 10:59N 40°20' E 000°52'713.5
2017-Sep-12 10:30N 40°15' E 000°58'713.3
2017-Sep-12 10:00N 40°10' E 001°04'613.2
2017-Sep-12 09:30N 40°06' E 001°10'613.0
2017-Sep-12 09:00N 40°01' E 001°17'612.9
2017-Sep-12 08:30N 39°57' E 001°23'612.8
2017-Sep-12 08:00N 39°52' E 001°29'612.9
2017-Sep-12 07:30N 39°48' E 001°35'612.7
2017-Sep-12 07:00N 39°44' E 001°42'612.8
2017-Sep-12 06:30N 39°40' E 001°48'713.0
2017-Sep-12 06:00N 39°35' E 001°54'713.3
2017-Sep-12 05:30N 39°31' E 002°00'714.3
2017-Sep-12 05:00N 39°25' E 002°06'714.7
2017-Sep-12 04:30N 39°20' E 002°13'714.5
2017-Sep-12 04:00N 39°15' E 002°20'714.4
2017-Sep-12 03:30N 39°10' E 002°27'714.2
2017-Sep-12 03:00N 39°06' E 002°34'714.0
2017-Sep-12 02:30N 39°02' E 002°41'713.9
2017-Sep-12 02:00N 38°58' E 002°49'612.1
2017-Sep-12 01:30N 38°53' E 002°52'713.3
2017-Sep-12 01:00N 38°48' E 002°58'714.0
2017-Sep-12 00:31N 38°43' E 003°04'713.8
2017-Sep-12 00:00N 38°38' E 003°11'713.9
2017-Sep-11 23:30N 38°33' E 003°17'713.9
2017-Sep-11 23:00N 38°28' E 003°24'714.0
2017-Sep-11 22:31N 38°23' E 003°30'714.2
2017-Sep-11 22:00N 38°19' E 003°36'714.1
2017-Sep-11 21:30N 38°14' E 003°43'  

Dump ship's entire track history